sensor_id;sensor_type;location;lat;lon;timestamp;pressure;altitude;pressure_sealevel;temperature;humidity
32747;BME280;19118;50.860;13.662;2022-07-21T00:01:43;96935.19;;;24.95;50.97
32747;BME280;19118;50.860;13.662;2022-07-21T00:06:44;96930.69;;;26.26;46.74
32747;BME280;19118;50.860;13.662;2022-07-21T00:11:47;96933.31;;;27.14;45.41
32747;BME280;19118;50.860;13.662;2022-07-21T00:16:48;96936.69;;;27.55;44.51
32747;BME280;19118;50.860;13.662;2022-07-21T00:21:48;96929.03;;;28.02;43.59
32747;BME280;19118;50.860;13.662;2022-07-21T00:26:48;96917.66;;;28.00;43.71
32747;BME280;19118;50.860;13.662;2022-07-21T00:31:49;96921.09;;;28.14;43.43
32747;BME280;19118;50.860;13.662;2022-07-21T00:36:49;96911.19;;;28.19;43.03
32747;BME280;19118;50.860;13.662;2022-07-21T00:41:49;96916.59;;;28.10;43.47
32747;BME280;19118;50.860;13.662;2022-07-21T00:46:50;96916.28;;;28.11;42.95
32747;BME280;19118;50.860;13.662;2022-07-21T00:51:51;96926.16;;;28.07;42.73
32747;BME280;19118;50.860;13.662;2022-07-21T00:56:51;96912.88;;;28.06;42.37
32747;BME280;19118;50.860;13.662;2022-07-21T01:01:52;96920.47;;;28.18;42.57
32747;BME280;19118;50.860;13.662;2022-07-21T01:06:53;96909.47;;;28.23;41.99
32747;BME280;19118;50.860;13.662;2022-07-21T01:11:54;96901.75;;;28.16;42.42
32747;BME280;19118;50.860;13.662;2022-07-21T01:16:55;96945.19;;;28.30;42.21
32747;BME280;19118;50.860;13.662;2022-07-21T01:21:55;97029.00;;;28.05;43.16
32747;BME280;19118;50.860;13.662;2022-07-21T01:26:56;97027.28;;;27.37;45.36
32747;BME280;19118;50.860;13.662;2022-07-21T01:31:56;97039.56;;;26.93;45.92
32747;BME280;19118;50.860;13.662;2022-07-21T01:36:56;97037.34;;;26.68;45.96
32747;BME280;19118;50.860;13.662;2022-07-21T01:41:57;97027.72;;;26.76;45.88
32747;BME280;19118;50.860;13.662;2022-07-21T01:46:58;97026.31;;;26.92;45.69
32747;BME280;19118;50.860;13.662;2022-07-21T01:51:59;97040.97;;;26.77;45.83
32747;BME280;19118;50.860;13.662;2022-07-21T01:57:00;97049.00;;;26.36;46.87
32747;BME280;19118;50.860;13.662;2022-07-21T02:02:00;97057.50;;;26.16;47.50
32747;BME280;19118;50.860;13.662;2022-07-21T02:07:02;97068.44;;;25.92;48.05
32747;BME280;19118;50.860;13.662;2022-07-21T02:12:03;97077.97;;;25.70;48.72
32747;BME280;19118;50.860;13.662;2022-07-21T02:17:03;97071.69;;;25.32;49.74
32747;BME280;19118;50.860;13.662;2022-07-21T02:22:04;97073.19;;;25.19;50.14
32747;BME280;19118;50.860;13.662;2022-07-21T02:27:04;97080.66;;;24.80;51.00
32747;BME280;19118;50.860;13.662;2022-07-21T02:32:04;97089.13;;;24.73;51.15
32747;BME280;19118;50.860;13.662;2022-07-21T02:37:05;97079.31;;;24.53;52.34
32747;BME280;19118;50.860;13.662;2022-07-21T02:42:05;97081.50;;;25.04;52.33
32747;BME280;19118;50.860;13.662;2022-07-21T02:47:05;97094.03;;;24.95;53.59
32747;BME280;19118;50.860;13.662;2022-07-21T02:52:06;97104.97;;;24.85;54.62
32747;BME280;19118;50.860;13.662;2022-07-21T02:57:06;97103.75;;;24.72;56.83
32747;BME280;19118;50.860;13.662;2022-07-21T03:02:07;97107.63;;;24.61;58.09
32747;BME280;19118;50.860;13.662;2022-07-21T03:07:07;97110.06;;;24.57;58.84
32747;BME280;19118;50.860;13.662;2022-07-21T03:12:07;97108.53;;;24.51;60.39
32747;BME280;19118;50.860;13.662;2022-07-21T03:17:08;97100.91;;;24.58;60.62
32747;BME280;19118;50.860;13.662;2022-07-21T03:22:08;97110.75;;;24.44;60.69
32747;BME280;19118;50.860;13.662;2022-07-21T03:27:08;97108.19;;;24.24;60.25
32747;BME280;19118;50.860;13.662;2022-07-21T03:32:09;97116.50;;;23.93;61.57
32747;BME280;19118;50.860;13.662;2022-07-21T03:37:09;97114.97;;;23.82;62.96
32747;BME280;19118;50.860;13.662;2022-07-21T03:42:09;97120.25;;;24.02;62.83
32747;BME280;19118;50.860;13.662;2022-07-21T03:47:10;97115.13;;;23.46;64.12
32747;BME280;19118;50.860;13.662;2022-07-21T03:52:10;97127.72;;;23.66;63.75
32747;BME280;19118;50.860;13.662;2022-07-21T03:57:10;97130.19;;;23.63;64.69
32747;BME280;19118;50.860;13.662;2022-07-21T04:02:11;97140.22;;;23.47;65.53
32747;BME280;19118;50.860;13.662;2022-07-21T04:07:11;97142.66;;;23.48;65.68
32747;BME280;19118;50.860;13.662;2022-07-21T04:12:11;97131.28;;;23.57;65.77
32747;BME280;19118;50.860;13.662;2022-07-21T04:17:12;97142.38;;;23.50;66.08
32747;BME280;19118;50.860;13.662;2022-07-21T04:22:12;97154.94;;;23.80;65.36
32747;BME280;19118;50.860;13.662;2022-07-21T04:27:13;97159.91;;;24.07;64.12
32747;BME280;19118;50.860;13.662;2022-07-21T04:32:13;97160.91;;;24.21;64.24
32747;BME280;19118;50.860;13.662;2022-07-21T04:37:13;97157.13;;;24.56;63.21
32747;BME280;19118;50.860;13.662;2022-07-21T04:42:14;97164.56;;;24.75;62.95
32747;BME280;19118;50.860;13.662;2022-07-21T04:47:15;97153.66;;;24.85;62.47
32747;BME280;19118;50.860;13.662;2022-07-21T04:52:15;97157.84;;;25.01;62.00
32747;BME280;19118;50.860;13.662;2022-07-21T04:57:16;97143.22;;;25.50;60.77
32747;BME280;19118;50.860;13.662;2022-07-21T05:02:16;97141.50;;;25.11;60.71
32747;BME280;19118;50.860;13.662;2022-07-21T05:07:16;97149.19;;;25.71;60.08
32747;BME280;19118;50.860;13.662;2022-07-21T05:12:16;97147.91;;;26.62;57.67
32747;BME280;19118;50.860;13.662;2022-07-21T05:17:17;97159.94;;;32.50;46.19
32747;BME280;19118;50.860;13.662;2022-07-21T05:22:17;97187.88;;;34.16;43.11
32747;BME280;19118;50.860;13.662;2022-07-21T05:27:17;97179.09;;;34.51;42.27
32747;BME280;19118;50.860;13.662;2022-07-21T05:32:18;97191.59;;;34.48;41.59
32747;BME280;19118;50.860;13.662;2022-07-21T05:37:18;97199.38;;;35.93;39.81
32747;BME280;19118;50.860;13.662;2022-07-21T05:42:18;97193.69;;;36.56;38.77
32747;BME280;19118;50.860;13.662;2022-07-21T05:47:19;97193.78;;;36.25;39.30
32747;BME280;19118;50.860;13.662;2022-07-21T05:52:19;97190.38;;;35.17;40.76
32747;BME280;19118;50.860;13.662;2022-07-21T05:57:19;97181.31;;;32.36;44.62
32747;BME280;19118;50.860;13.662;2022-07-21T06:02:20;97172.66;;;30.98;46.09
32747;BME280;19118;50.860;13.662;2022-07-21T06:07:20;97173.81;;;32.03;44.80
32747;BME280;19118;50.860;13.662;2022-07-21T06:12:20;97177.47;;;33.73;42.40
32747;BME280;19118;50.860;13.662;2022-07-21T06:17:22;97178.06;;;31.92;44.96
32747;BME280;19118;50.860;13.662;2022-07-21T06:22:22;97180.25;;;30.41;46.98
32747;BME280;19118;50.860;13.662;2022-07-21T06:27:23;97177.22;;;29.28;49.91
32747;BME280;19118;50.860;13.662;2022-07-21T06:32:23;97165.00;;;29.48;49.57
32747;BME280;19118;50.860;13.662;2022-07-21T06:37:23;97179.59;;;30.53;47.60
32747;BME280;19118;50.860;13.662;2022-07-21T06:42:24;97180.09;;;30.37;46.67
32747;BME280;19118;50.860;13.662;2022-07-21T06:47:25;97189.25;;;29.59;47.71
32747;BME280;19118;50.860;13.662;2022-07-21T06:52:25;97186.16;;;30.34;47.57
32747;BME280;19118;50.860;13.662;2022-07-21T06:57:25;97188.44;;;30.58;47.44
32747;BME280;19118;50.860;13.662;2022-07-21T07:02:26;97185.22;;;30.22;47.14
32747;BME280;19118;50.860;13.662;2022-07-21T07:07:26;97185.28;;;29.34;48.37
32747;BME280;19118;50.860;13.662;2022-07-21T07:12:26;97188.25;;;29.54;48.07
32747;BME280;19118;50.860;13.662;2022-07-21T07:17:27;97194.16;;;30.05;47.17
32747;BME280;19118;50.860;13.662;2022-07-21T07:22:27;97196.78;;;30.27;46.08
32747;BME280;19118;50.860;13.662;2022-07-21T07:27:28;97210.59;;;30.39;46.09
32747;BME280;19118;50.860;13.662;2022-07-21T07:32:28;97205.44;;;30.29;47.07
32747;BME280;19118;50.860;13.662;2022-07-21T07:37:28;97209.31;;;30.37;46.30
32747;BME280;19118;50.860;13.662;2022-07-21T07:42:29;97212.38;;;29.78;47.74
32747;BME280;19118;50.860;13.662;2022-07-21T07:47:29;97209.38;;;29.97;48.36
32747;BME280;19118;50.860;13.662;2022-07-21T07:52:30;97205.44;;;29.64;48.35
32747;BME280;19118;50.860;13.662;2022-07-21T07:57:30;97216.44;;;29.98;48.60
32747;BME280;19118;50.860;13.662;2022-07-21T08:02:30;97208.09;;;28.70;50.79
32747;BME280;19118;50.860;13.662;2022-07-21T08:07:31;97199.00;;;30.34;47.50
32747;BME280;19118;50.860;13.662;2022-07-21T08:12:31;97206.22;;;30.90;47.06
32747;BME280;19118;50.860;13.662;2022-07-21T08:17:32;97207.97;;;31.21;46.70
32747;BME280;19118;50.860;13.662;2022-07-21T08:22:32;97212.03;;;31.53;46.00
32747;BME280;19118;50.860;13.662;2022-07-21T08:27:33;97213.41;;;31.12;47.13
32747;BME280;19118;50.860;13.662;2022-07-21T08:32:33;97210.16;;;31.36;46.25
32747;BME280;19118;50.860;13.662;2022-07-21T08:37:35;97210.25;;;31.95;46.14
32747;BME280;19118;50.860;13.662;2022-07-21T08:42:36;97212.28;;;32.28;44.79
32747;BME280;19118;50.860;13.662;2022-07-21T08:47:37;97212.47;;;32.23;45.11
32747;BME280;19118;50.860;13.662;2022-07-21T08:52:38;97221.53;;;32.86;45.14
32747;BME280;19118;50.860;13.662;2022-07-21T08:57:39;97224.78;;;33.00;44.72
32747;BME280;19118;50.860;13.662;2022-07-21T09:02:40;97220.19;;;32.29;45.78
32747;BME280;19118;50.860;13.662;2022-07-21T09:07:52;97230.06;;;33.17;44.87
32747;BME280;19118;50.860;13.662;2022-07-21T09:12:57;97222.81;;;31.96;47.16
32747;BME280;19118;50.860;13.662;2022-07-21T09:18:08;97226.28;;;32.05;47.47
32747;BME280;19118;50.860;13.662;2022-07-21T09:23:13;97224.47;;;32.39;47.17
32747;BME280;19118;50.860;13.662;2022-07-21T09:28:24;97230.63;;;32.06;47.33
32747;BME280;19118;50.860;13.662;2022-07-21T09:33:28;97224.44;;;32.81;46.73
32747;BME280;19118;50.860;13.662;2022-07-21T09:38:35;97232.34;;;31.81;47.71
32747;BME280;19118;50.860;13.662;2022-07-21T09:43:42;97230.88;;;32.13;47.96
32747;BME280;19118;50.860;13.662;2022-07-21T09:48:46;97230.59;;;32.78;46.95
32747;BME280;19118;50.860;13.662;2022-07-21T09:54:00;97230.09;;;33.29;46.07
32747;BME280;19118;50.860;13.662;2022-07-21T09:59:03;97232.50;;;32.44;45.56
32747;BME280;19118;50.860;13.662;2022-07-21T10:04:04;97230.09;;;33.29;44.08
32747;BME280;19118;50.860;13.662;2022-07-21T10:09:09;97234.66;;;33.25;43.74
32747;BME280;19118;50.860;13.662;2022-07-21T10:14:12;97226.16;;;33.51;44.27
32747;BME280;19118;50.860;13.662;2022-07-21T10:19:19;97218.91;;;33.22;44.99
32747;BME280;19118;50.860;13.662;2022-07-21T10:24:22;97223.34;;;33.27;45.43
32747;BME280;19118;50.860;13.662;2022-07-21T10:34:49;97223.47;;;33.76;43.72
32747;BME280;19118;50.860;13.662;2022-07-21T10:39:49;97223.72;;;32.00;45.89
32747;BME280;19118;50.860;13.662;2022-07-21T10:44:49;97229.41;;;31.95;46.56
32747;BME280;19118;50.860;13.662;2022-07-21T10:49:56;97234.16;;;31.31;47.52
32747;BME280;19118;50.860;13.662;2022-07-21T11:05:31;97237.09;;;30.91;48.69
32747;BME280;19118;50.860;13.662;2022-07-21T11:10:31;97245.63;;;32.00;46.55
32747;BME280;19118;50.860;13.662;2022-07-21T11:15:57;97245.63;;;32.71;46.32
32747;BME280;19118;50.860;13.662;2022-07-21T11:21:15;97240.16;;;32.71;45.92
32747;BME280;19118;50.860;13.662;2022-07-21T11:26:19;97239.69;;;32.69;46.45
32747;BME280;19118;50.860;13.662;2022-07-21T11:31:23;97219.41;;;31.99;47.76
32747;BME280;19118;50.860;13.662;2022-07-21T11:36:30;97242.13;;;31.53;48.54
32747;BME280;19118;50.860;13.662;2022-07-21T11:41:32;97247.69;;;31.01;49.71
32747;BME280;19118;50.860;13.662;2022-07-21T11:46:47;97245.09;;;30.44;52.05
32747;BME280;19118;50.860;13.662;2022-07-21T11:52:03;97254.56;;;30.29;52.98
32747;BME280;19118;50.860;13.662;2022-07-21T11:57:06;97251.75;;;30.03;54.23
32747;BME280;19118;50.860;13.662;2022-07-21T12:02:10;97263.88;;;30.46;54.29
32747;BME280;19118;50.860;13.662;2022-07-21T12:07:23;97255.03;;;29.74;54.80
32747;BME280;19118;50.860;13.662;2022-07-21T12:12:35;97269.34;;;29.89;54.91
32747;BME280;19118;50.860;13.662;2022-07-21T12:17:39;97266.06;;;28.71;56.64
32747;BME280;19118;50.860;13.662;2022-07-21T12:22:41;97280.09;;;28.64;58.06
32747;BME280;19118;50.860;13.662;2022-07-21T12:27:47;97277.59;;;27.77;59.83
32747;BME280;19118;50.860;13.662;2022-07-21T12:32:49;97252.47;;;28.35;58.59
32747;BME280;19118;50.860;13.662;2022-07-21T12:43:10;97273.84;;;29.00;57.93
32747;BME280;19118;50.860;13.662;2022-07-21T12:48:13;97284.66;;;29.36;55.88
32747;BME280;19118;50.860;13.662;2022-07-21T12:53:14;97284.19;;;28.76;56.54
32747;BME280;19118;50.860;13.662;2022-07-21T12:58:14;97289.59;;;28.53;57.63
32747;BME280;19118;50.860;13.662;2022-07-21T13:03:14;97277.03;;;28.16;58.43
32747;BME280;19118;50.860;13.662;2022-07-21T13:08:15;97283.75;;;26.66;62.21
32747;BME280;19118;50.860;13.662;2022-07-21T13:13:15;97266.25;;;26.91;61.69
32747;BME280;19118;50.860;13.662;2022-07-21T13:18:16;97263.13;;;27.03;61.31
32747;BME280;19118;50.860;13.662;2022-07-21T13:23:16;97239.34;;;27.27;60.35
32747;BME280;19118;50.860;13.662;2022-07-21T13:28:17;97238.38;;;26.53;62.62
32747;BME280;19118;50.860;13.662;2022-07-21T13:33:18;97242.31;;;26.60;66.78
32747;BME280;19118;50.860;13.662;2022-07-21T13:38:18;97250.44;;;26.79;65.66
32747;BME280;19118;50.860;13.662;2022-07-21T13:43:18;97240.13;;;27.14;62.79
32747;BME280;19118;50.860;13.662;2022-07-21T13:48:19;97230.72;;;28.21;60.23
32747;BME280;19118;50.860;13.662;2022-07-21T13:53:19;97235.28;;;27.11;61.90
32747;BME280;19118;50.860;13.662;2022-07-21T13:58:20;97257.28;;;26.58;63.56
32747;BME280;19118;50.860;13.662;2022-07-21T14:03:20;97245.31;;;26.59;65.69
32747;BME280;19118;50.860;13.662;2022-07-21T14:08:20;97238.88;;;26.17;67.65
32747;BME280;19118;50.860;13.662;2022-07-21T14:13:21;97268.84;;;25.54;68.92
32747;BME280;19118;50.860;13.662;2022-07-21T14:18:21;97270.50;;;24.87;68.60
32747;BME280;19118;50.860;13.662;2022-07-21T14:23:22;97250.16;;;24.94;67.90
32747;BME280;19118;50.860;13.662;2022-07-21T14:28:22;97253.44;;;24.52;72.91
32747;BME280;19118;50.860;13.662;2022-07-21T14:33:23;97259.66;;;24.53;74.50
32747;BME280;19118;50.860;13.662;2022-07-21T14:38:23;97266.50;;;23.75;76.62
32747;BME280;19118;50.860;13.662;2022-07-21T14:43:24;97245.28;;;23.28;78.14
32747;BME280;19118;50.860;13.662;2022-07-21T14:48:24;97218.22;;;23.64;78.97
32747;BME280;19118;50.860;13.662;2022-07-21T14:53:24;97213.00;;;23.77;76.98
32747;BME280;19118;50.860;13.662;2022-07-21T14:58:25;97221.16;;;23.72;79.77
32747;BME280;19118;50.860;13.662;2022-07-21T15:03:25;97232.22;;;23.56;82.69
32747;BME280;19118;50.860;13.662;2022-07-21T15:08:26;97224.44;;;23.44;81.03
32747;BME280;19118;50.860;13.662;2022-07-21T15:13:26;97227.03;;;23.85;79.52
32747;BME280;19118;50.860;13.662;2022-07-21T15:18:28;97229.38;;;24.06;76.77
32747;BME280;19118;50.860;13.662;2022-07-21T15:23:29;97224.63;;;23.83;76.35
32747;BME280;19118;50.860;13.662;2022-07-21T15:28:29;97243.50;;;23.88;72.67
32747;BME280;19118;50.860;13.662;2022-07-21T15:33:29;97242.22;;;23.70;70.87
32747;BME280;19118;50.860;13.662;2022-07-21T15:38:30;97223.41;;;24.09;69.08
32747;BME280;19118;50.860;13.662;2022-07-21T15:43:30;97254.84;;;24.84;69.86
32747;BME280;19118;50.860;13.662;2022-07-21T15:48:30;97253.69;;;24.06;72.24
32747;BME280;19118;50.860;13.662;2022-07-21T15:53:31;97250.19;;;23.01;78.42
32747;BME280;19118;50.860;13.662;2022-07-21T15:58:31;97225.78;;;23.51;78.55
32747;BME280;19118;50.860;13.662;2022-07-21T16:03:32;97213.09;;;24.11;77.29
32747;BME280;19118;50.860;13.662;2022-07-21T16:08:32;97210.69;;;25.46;72.19
32747;BME280;19118;50.860;13.662;2022-07-21T16:13:32;97206.88;;;26.14;69.91
32747;BME280;19118;50.860;13.662;2022-07-21T16:18:33;97193.63;;;28.25;64.55
32747;BME280;19118;50.860;13.662;2022-07-21T16:23:33;97199.34;;;32.58;54.89
32747;BME280;19118;50.860;13.662;2022-07-21T16:28:34;97203.59;;;34.31;51.60
32747;BME280;19118;50.860;13.662;2022-07-21T16:33:34;97184.81;;;31.65;57.73
32747;BME280;19118;50.860;13.662;2022-07-21T16:38:34;97178.72;;;32.19;53.57
32747;BME280;19118;50.860;13.662;2022-07-21T16:43:35;97171.25;;;29.18;59.00
32747;BME280;19118;50.860;13.662;2022-07-21T16:48:35;97165.03;;;31.13;54.79
32747;BME280;19118;50.860;13.662;2022-07-21T16:53:35;97158.50;;;30.01;54.79
32747;BME280;19118;50.860;13.662;2022-07-21T16:58:36;97153.72;;;29.10;57.18
32747;BME280;19118;50.860;13.662;2022-07-21T17:03:37;97156.00;;;28.63;58.33
32747;BME280;19118;50.860;13.662;2022-07-21T17:08:37;97153.44;;;27.72;60.13
32747;BME280;19118;50.860;13.662;2022-07-21T17:13:38;97155.06;;;27.87;60.80
32747;BME280;19118;50.860;13.662;2022-07-21T17:18:39;97141.31;;;29.26;57.69
32747;BME280;19118;50.860;13.662;2022-07-21T17:23:39;97133.88;;;28.87;58.51
32747;BME280;19118;50.860;13.662;2022-07-21T17:28:40;97142.47;;;32.76;50.94
32747;BME280;19118;50.860;13.662;2022-07-21T17:33:40;97134.88;;;31.00;53.08
32747;BME280;19118;50.860;13.662;2022-07-21T17:38:41;97136.31;;;31.45;51.69
32747;BME280;19118;50.860;13.662;2022-07-21T17:43:41;97137.84;;;30.52;54.57
32747;BME280;19118;50.860;13.662;2022-07-21T17:48:41;97134.78;;;32.36;51.61
32747;BME280;19118;50.860;13.662;2022-07-21T17:53:42;97138.44;;;29.32;57.12
32747;BME280;19118;50.860;13.662;2022-07-21T17:58:42;97133.88;;;29.10;57.21
32747;BME280;19118;50.860;13.662;2022-07-21T18:03:45;97133.47;;;28.27;59.15
32747;BME280;19118;50.860;13.662;2022-07-21T18:08:46;97127.97;;;27.82;60.73
32747;BME280;19118;50.860;13.662;2022-07-21T18:13:47;97127.81;;;26.77;63.21
32747;BME280;19118;50.860;13.662;2022-07-21T18:18:47;97128.16;;;26.05;64.55
32747;BME280;19118;50.860;13.662;2022-07-21T18:23:48;97122.94;;;26.09;64.94
32747;BME280;19118;50.860;13.662;2022-07-21T18:28:48;97117.75;;;25.75;66.17
32747;BME280;19118;50.860;13.662;2022-07-21T18:33:48;97116.72;;;25.47;67.96
32747;BME280;19118;50.860;13.662;2022-07-21T18:38:49;97120.63;;;25.36;68.65
32747;BME280;19118;50.860;13.662;2022-07-21T18:43:49;97133.53;;;24.96;70.96
32747;BME280;19118;50.860;13.662;2022-07-21T18:48:50;97136.38;;;24.81;71.15
32747;BME280;19118;50.860;13.662;2022-07-21T18:53:50;97132.66;;;24.43;69.99
32747;BME280;19118;50.860;13.662;2022-07-21T18:58:50;97135.28;;;24.53;69.95
32747;BME280;19118;50.860;13.662;2022-07-21T19:03:51;97144.28;;;24.04;70.88
32747;BME280;19118;50.860;13.662;2022-07-21T19:08:51;97139.28;;;24.21;70.75
32747;BME280;19118;50.860;13.662;2022-07-21T19:13:52;97139.34;;;24.11;70.35
32747;BME280;19118;50.860;13.662;2022-07-21T19:18:53;97145.06;;;24.04;70.72
32747;BME280;19118;50.860;13.662;2022-07-21T19:23:53;97152.72;;;23.92;71.07
32747;BME280;19118;50.860;13.662;2022-07-21T19:28:54;97150.91;;;23.77;71.38
32747;BME280;19118;50.860;13.662;2022-07-21T19:33:57;97154.72;;;23.66;71.80
32747;BME280;19118;50.860;13.662;2022-07-21T19:38:57;97158.84;;;23.59;72.46
32747;BME280;19118;50.860;13.662;2022-07-21T19:43:58;97164.31;;;23.28;75.03
32747;BME280;19118;50.860;13.662;2022-07-21T19:48:58;97161.63;;;23.18;75.39
32747;BME280;19118;50.860;13.662;2022-07-21T19:53:58;97166.00;;;22.99;76.24
32747;BME280;19118;50.860;13.662;2022-07-21T19:58:59;97159.28;;;22.91;76.32
32747;BME280;19118;50.860;13.662;2022-07-21T20:04:01;97159.00;;;22.77;77.00
32747;BME280;19118;50.860;13.662;2022-07-21T20:09:02;97163.28;;;22.99;76.46
32747;BME280;19118;50.860;13.662;2022-07-21T20:14:03;97164.88;;;23.15;75.67
32747;BME280;19118;50.860;13.662;2022-07-21T20:19:04;97164.88;;;23.15;75.72
32747;BME280;19118;50.860;13.662;2022-07-21T20:24:05;97170.06;;;23.01;76.20
32747;BME280;19118;50.860;13.662;2022-07-21T20:29:05;97171.41;;;22.73;77.40
32747;BME280;19118;50.860;13.662;2022-07-21T20:34:06;97167.63;;;22.38;77.56
32747;BME280;19118;50.860;13.662;2022-07-21T20:39:07;97168.69;;;22.37;77.88
32747;BME280;19118;50.860;13.662;2022-07-21T20:44:07;97164.91;;;22.18;78.72
32747;BME280;19118;50.860;13.662;2022-07-21T20:49:08;97163.28;;;22.12;78.67
32747;BME280;19118;50.860;13.662;2022-07-21T20:54:08;97164.28;;;21.96;79.08
32747;BME280;19118;50.860;13.662;2022-07-21T20:59:09;97160.22;;;21.83;79.55
32747;BME280;19118;50.860;13.662;2022-07-21T21:04:09;97160.50;;;21.82;80.02
32747;BME280;19118;50.860;13.662;2022-07-21T21:09:12;97164.81;;;21.83;79.29
32747;BME280;19118;50.860;13.662;2022-07-21T21:14:12;97172.31;;;21.70;79.42
32747;BME280;19118;50.860;13.662;2022-07-21T21:19:13;97167.97;;;21.59;79.46
32747;BME280;19118;50.860;13.662;2022-07-21T21:24:14;97166.13;;;21.65;78.73
32747;BME280;19118;50.860;13.662;2022-07-21T21:29:15;97167.47;;;21.72;78.36
32747;BME280;19118;50.860;13.662;2022-07-21T21:34:15;97172.59;;;21.74;78.00
32747;BME280;19118;50.860;13.662;2022-07-21T21:39:16;97174.47;;;21.73;77.77
32747;BME280;19118;50.860;13.662;2022-07-21T21:44:17;97177.19;;;21.84;77.26
32747;BME280;19118;50.860;13.662;2022-07-21T21:49:17;97179.56;;;21.65;78.15
32747;BME280;19118;50.860;13.662;2022-07-21T21:54:17;97187.06;;;21.53;78.56
32747;BME280;19118;50.860;13.662;2022-07-21T21:59:19;97198.53;;;21.33;79.15
32747;BME280;19118;50.860;13.662;2022-07-21T22:04:19;97187.41;;;21.19;79.85
32747;BME280;19118;50.860;13.662;2022-07-21T22:09:20;97192.78;;;21.19;80.08
32747;BME280;19118;50.860;13.662;2022-07-21T22:14:21;97195.72;;;21.17;79.34
32747;BME280;19118;50.860;13.662;2022-07-21T22:19:21;97201.59;;;21.09;79.77
32747;BME280;19118;50.860;13.662;2022-07-21T22:24:22;97208.53;;;21.05;79.29
32747;BME280;19118;50.860;13.662;2022-07-21T22:29:22;97204.22;;;20.99;79.25
32747;BME280;19118;50.860;13.662;2022-07-21T22:34:23;97213.22;;;20.78;79.04
32747;BME280;19118;50.860;13.662;2022-07-21T22:39:23;97216.00;;;20.93;78.22
32747;BME280;19118;50.860;13.662;2022-07-21T22:44:24;97221.34;;;20.88;77.88
32747;BME280;19118;50.860;13.662;2022-07-21T22:49:25;97229.31;;;20.73;77.94
32747;BME280;19118;50.860;13.662;2022-07-21T22:54:25;97230.16;;;20.78;78.32
32747;BME280;19118;50.860;13.662;2022-07-21T22:59:26;97235.13;;;20.64;79.49
32747;BME280;19118;50.860;13.662;2022-07-21T23:04:27;97229.38;;;20.51;79.79
32747;BME280;19118;50.860;13.662;2022-07-21T23:09:28;97230.06;;;20.41;80.16
32747;BME280;19118;50.860;13.662;2022-07-21T23:14:28;97228.34;;;20.30;79.87
32747;BME280;19118;50.860;13.662;2022-07-21T23:19:28;97222.47;;;20.33;80.27
32747;BME280;19118;50.860;13.662;2022-07-21T23:24:29;97226.22;;;20.32;80.56
32747;BME280;19118;50.860;13.662;2022-07-21T23:29:29;97218.94;;;20.27;80.38
32747;BME280;19118;50.860;13.662;2022-07-21T23:34:30;97226.50;;;20.09;81.37
32747;BME280;19118;50.860;13.662;2022-07-21T23:39:30;97213.94;;;19.87;82.14
32747;BME280;19118;50.860;13.662;2022-07-21T23:44:30;97215.56;;;19.66;83.32
32747;BME280;19118;50.860;13.662;2022-07-21T23:49:31;97212.91;;;19.49;84.37
32747;BME280;19118;50.860;13.662;2022-07-21T23:54:31;97212.69;;;19.34;85.06
32747;BME280;19118;50.860;13.662;2022-07-21T23:59:31;97210.88;;;19.18;85.08
